createdAt,value
2019-02-25T00:00:32.452Z,73.79
2019-02-25T00:01:42.392Z,73.6
2019-02-25T00:02:51.826Z,73.5
2019-02-25T00:04:01.009Z,73.69
2019-02-25T00:05:10.696Z,73.5
2019-02-25T00:06:20.133Z,73.5
2019-02-25T00:07:29.606Z,73.21
2019-02-25T00:08:39.070Z,73.41
2019-02-25T00:09:48.527Z,73.79
2019-02-25T00:10:58.206Z,73.6
2019-02-25T00:12:07.906Z,73.31
2019-02-25T00:13:17.863Z,73.21
2019-02-25T00:14:27.806Z,73.21
2019-02-25T00:15:37.239Z,73.41
2019-02-25T00:16:46.933Z,73.31
2019-02-25T00:17:56.365Z,71.58
2019-02-25T00:19:05.854Z,71.1
2019-02-25T00:20:15.799Z,71.87
2019-02-25T00:21:25.506Z,72.16
2019-02-25T00:22:34.952Z,72.34
2019-02-25T00:23:44.647Z,72.83
2019-02-25T00:24:53.831Z,72.92
2019-02-25T00:26:03.780Z,72.92
2019-02-25T00:27:13.713Z,72.92
2019-02-25T00:28:23.400Z,72.73
2019-02-25T00:29:33.094Z,72.83
2019-02-25T00:30:42.529Z,72.73
2019-02-25T00:31:52.222Z,72.64
2019-02-25T00:33:02.162Z,72.83
2019-02-25T00:34:12.100Z,72.64
2019-02-25T00:35:21.790Z,72.54
2019-02-25T00:36:31.719Z,72.64
2019-02-25T00:37:41.412Z,72.64
2019-02-25T00:38:51.107Z,73.11
2019-02-25T00:40:00.791Z,73.18
2019-02-25T00:41:10.535Z,73.11
2019-02-25T00:42:20.495Z,73.08
2019-02-25T00:43:29.932Z,73.02
2019-02-25T00:44:39.676Z,73.56
2019-02-25T00:45:49.116Z,73.37
2019-02-25T00:46:58.796Z,73.27
2019-02-25T00:48:08.739Z,73.46
2019-02-25T00:49:18.679Z,73.11
2019-02-25T00:50:28.618Z,73.27
2019-02-25T00:51:38.313Z,73.75
2019-02-25T00:52:48.022Z,73.18
2019-02-25T00:53:57.708Z,73.56
2019-02-25T00:55:07.151Z,73.37
2019-02-25T00:56:16.851Z,73.37
2019-02-25T00:57:26.538Z,73.56
2019-02-25T00:58:36.473Z,73.56
2019-02-25T00:59:45.919Z,73.27
2019-02-25T01:00:55.600Z,73.56
2019-02-25T01:02:05.590Z,73.56
2019-02-25T01:03:15.274Z,73.56
2019-02-25T01:04:24.714Z,73.85
2019-02-25T01:05:34.657Z,73.27
2019-02-25T01:06:44.350Z,73.94
2019-02-25T01:07:53.788Z,73.75
2019-02-25T01:09:03.738Z,73.66
2019-02-25T01:10:13.442Z,73.85
2019-02-25T01:11:23.128Z,74.23
2019-02-25T01:12:33.072Z,74.04
2019-02-25T01:13:43.004Z,74.23
2019-02-25T01:14:52.195Z,74.04
2019-02-25T01:16:02.178Z,74.23
2019-02-25T01:17:12.119Z,74.23
2019-02-25T01:18:21.551Z,74.13
2019-02-25T01:19:31.005Z,74.52
2019-02-25T01:20:40.688Z,74.43
2019-02-25T01:21:49.629Z,74.23
2019-02-25T01:22:59.565Z,74.23
2019-02-25T01:24:09.248Z,74.04
2019-02-25T01:25:18.717Z,74.52
2019-02-25T01:26:28.714Z,74.33
2019-02-25T01:27:38.412Z,74.62
2019-02-25T01:28:48.351Z,74.62
2019-02-25T01:29:57.781Z,74.71
2019-02-25T01:31:07.384Z,74.52
2019-02-25T01:32:17.324Z,74.71
2019-02-25T01:33:27.258Z,74.52
2019-02-25T01:34:36.952Z,74.43
2019-02-25T01:35:46.644Z,74.52
2019-02-25T01:36:56.583Z,74.71
2019-02-25T01:38:06.270Z,74.52
2019-02-25T01:39:15.761Z,74.52
2019-02-25T01:40:25.217Z,74.52
2019-02-25T01:41:34.906Z,74.52
2019-02-25T01:42:44.597Z,74.9
2019-02-25T01:43:54.288Z,74.9
2019-02-25T01:45:04.047Z,75.1
2019-02-25T01:46:13.782Z,74.9
2019-02-25T01:47:23.464Z,75
2019-02-25T01:48:33.446Z,75
2019-02-25T01:49:42.882Z,74.81
2019-02-25T01:50:52.823Z,75
2019-02-25T01:52:02.767Z,74.9
2019-02-25T01:53:12.214Z,75.2
2019-02-25T01:54:21.401Z,75.1
2019-02-25T01:55:31.127Z,75
2019-02-25T01:56:40.571Z,75
2019-02-25T01:57:50.522Z,75
2019-02-25T01:59:00.463Z,74.87
2019-02-25T02:00:10.156Z,74.9
2019-02-25T02:01:20.110Z,75.2
2019-02-25T02:02:30.060Z,74.71
2019-02-25T02:03:39.751Z,75.38
2019-02-25T02:04:49.183Z,75.29
2019-02-25T02:05:58.881Z,75.29
2019-02-25T02:07:08.582Z,75
2019-02-25T02:08:18.522Z,75.2
2019-02-25T02:09:28.207Z,75.2
2019-02-25T02:10:38.161Z,75.35
2019-02-25T02:11:48.109Z,75.29
2019-02-25T02:12:58.057Z,75.29
2019-02-25T02:14:17.031Z,74.9
2019-02-25T02:15:26.721Z,75.38
2019-02-25T02:16:36.403Z,75.25
2019-02-25T02:17:46.098Z,75.29
2019-02-25T02:18:55.785Z,75
2019-02-25T02:20:05.731Z,75.38
2019-02-25T02:21:15.417Z,75.38
2019-02-25T02:22:24.911Z,75.35
2019-02-25T02:23:34.603Z,75.29
2019-02-25T02:27:07.274Z,74.77
2019-02-25T02:28:16.967Z,75.29
2019-02-25T02:29:26.398Z,75.48
2019-02-25T02:30:36.108Z,74.87
2019-02-25T02:31:46.065Z,75.45
2019-02-25T02:32:55.766Z,75.2
2019-02-25T02:34:05.463Z,75.29
2019-02-25T02:35:14.919Z,75.2
2019-02-25T02:36:24.373Z,75.48
2019-02-25T02:37:34.083Z,75.25
2019-02-25T02:38:43.772Z,75.45
2019-02-25T02:39:53.283Z,75.2
2019-02-25T02:41:03.286Z,75.35
2019-02-25T02:42:12.989Z,75.29
2019-02-25T02:43:22.937Z,75.35
2019-02-25T02:44:32.894Z,75.29
2019-02-25T02:45:42.842Z,75.48
2019-02-25T02:46:52.563Z,75.15
2019-02-25T02:48:02.264Z,75.15
2019-02-25T02:49:12.237Z,75.29
2019-02-25T02:50:22.198Z,75.29
2019-02-25T02:51:31.902Z,75.38
2019-02-25T02:52:41.641Z,75.35
2019-02-25T02:53:51.378Z,75.35
2019-02-25T02:55:01.361Z,75.25
2019-02-25T02:56:11.354Z,75.15
2019-02-25T02:57:21.298Z,74.77
2019-02-25T02:58:30.759Z,74.68
2019-02-25T02:59:40.215Z,75.06
2019-02-25T03:00:50.158Z,74.68
2019-02-25T03:01:59.849Z,74.87
2019-02-25T03:03:09.560Z,75.06
2019-02-25T03:04:19.272Z,74.87
2019-02-25T03:05:28.990Z,74.96
2019-02-25T03:06:38.936Z,74.96
2019-02-25T03:07:48.618Z,74.96
2019-02-25T03:08:58.555Z,74.96
2019-02-25T03:10:08.240Z,75.06
2019-02-25T03:11:17.935Z,74.96
2019-02-25T03:12:27.385Z,74.96
2019-02-25T03:13:37.346Z,74.87
2019-02-25T03:14:47.072Z,74.87
2019-02-25T03:15:56.514Z,75.06
2019-02-25T03:17:05.955Z,74.87
2019-02-25T03:18:15.899Z,74.87
2019-02-25T03:19:25.833Z,74.87
2019-02-25T03:20:35.519Z,74.96
2019-02-25T03:21:45.458Z,74.87
2019-02-25T03:22:55.163Z,74.87
2019-02-25T03:24:05.127Z,74.58
2019-02-25T03:25:14.824Z,74.68
2019-02-25T03:26:24.273Z,74.58
2019-02-25T03:27:34.224Z,74.58
2019-02-25T03:28:44.175Z,74.39
2019-02-25T03:29:54.138Z,74.48
2019-02-25T03:31:03.862Z,74.48
2019-02-25T03:32:13.635Z,74.58
2019-02-25T03:33:23.473Z,74.58
2019-02-25T03:34:33.446Z,74.58
2019-02-25T03:35:43.161Z,74.68
2019-02-25T03:36:53.122Z,74.77
2019-02-25T03:38:02.823Z,74.39
2019-02-25T03:39:12.799Z,74.48
2019-02-25T03:40:22.781Z,74.58
2019-02-25T03:41:32.493Z,74.68
2019-02-25T03:42:42.450Z,74.68
2019-02-25T03:43:52.486Z,74.58
2019-02-25T03:45:02.177Z,74.68
2019-02-25T03:46:11.881Z,74.39
2019-02-25T03:47:21.620Z,74.68
2019-02-25T03:48:31.310Z,74.29
2019-02-25T03:49:41.265Z,74.58
2019-02-25T03:50:51.292Z,74.39
2019-02-25T03:52:01.254Z,74.19
2019-02-25T03:53:10.723Z,74.01
2019-02-25T03:54:20.422Z,74.19
2019-02-25T03:55:30.123Z,74.1
2019-02-25T03:56:39.564Z,74.1
2019-02-25T03:57:49.266Z,74.39
2019-02-25T03:58:59.251Z,74.19
2019-02-25T04:00:09.212Z,74.19
2019-02-25T04:01:18.917Z,74.01
2019-02-25T04:02:28.867Z,74.01
2019-02-25T04:03:38.582Z,74.01
2019-02-25T04:04:48.546Z,74.01
2019-02-25T04:05:58.486Z,74.01
2019-02-25T04:07:08.301Z,74.19
2019-02-25T04:08:18.264Z,74.19
2019-02-25T04:09:28.215Z,74.29
2019-02-25T04:10:38.151Z,73.91
2019-02-25T04:11:48.140Z,74.1
2019-02-25T04:12:58.088Z,74.1
2019-02-25T04:14:08.032Z,73.91
2019-02-25T04:15:17.975Z,74.1
2019-02-25T04:16:27.696Z,74.1
2019-02-25T04:17:37.387Z,74.19
2019-02-25T04:18:46.838Z,74.1
2019-02-25T04:19:56.774Z,74.19
2019-02-25T04:21:06.725Z,73.52
2019-02-25T04:22:16.421Z,73.33
2019-02-25T04:23:26.124Z,73.62
2019-02-25T04:24:35.811Z,73.81
2019-02-25T04:25:45.773Z,73.43
2019-02-25T04:26:58.125Z,74.29
2019-02-25T04:28:08.142Z,73.72
2019-02-25T04:29:17.591Z,73.81
2019-02-25T04:30:27.059Z,73.91
2019-02-25T04:31:36.762Z,73.91
2019-02-25T04:32:46.461Z,73.52
2019-02-25T04:33:56.404Z,73.52
2019-02-25T04:35:05.854Z,73.81
2019-02-25T04:36:15.798Z,73.33
2019-02-25T04:37:25.755Z,73.52
2019-02-25T04:38:35.707Z,73.43
2019-02-25T04:39:45.421Z,73.33
2019-02-25T04:40:55.099Z,73.72
2019-02-25T04:42:05.045Z,73.52
2019-02-25T04:43:14.750Z,73.43
2019-02-25T04:44:24.438Z,73.62
2019-02-25T04:45:33.882Z,73.52
2019-02-25T04:46:43.597Z,73.72
2019-02-25T04:47:53.050Z,73.62
2019-02-25T04:49:02.512Z,73.33
2019-02-25T04:50:12.457Z,73.14
2019-02-25T04:51:22.408Z,73.04
2019-02-25T04:52:32.100Z,73.24
2019-02-25T04:53:41.534Z,73.43
2019-02-25T04:54:51.227Z,73.14
2019-02-25T04:56:00.924Z,73.24
2019-02-25T04:57:10.871Z,73.33
2019-02-25T04:58:20.557Z,73.24
2019-02-25T04:59:30.518Z,73.24
2019-02-25T05:00:40.206Z,73.43
2019-02-25T05:01:49.915Z,72.95
2019-02-25T05:02:59.421Z,73.24
2019-02-25T05:04:09.165Z,73.24
2019-02-25T05:05:18.933Z,73.43
2019-02-25T05:06:28.900Z,73.33
2019-02-25T05:07:38.849Z,73.33
2019-02-25T05:08:48.044Z,73.24
2019-02-25T05:09:57.489Z,72.85
2019-02-25T05:11:07.434Z,73.04
2019-02-25T05:12:17.113Z,73.24
2019-02-25T05:13:26.320Z,73.04
2019-02-25T05:14:35.764Z,72.56
2019-02-25T05:15:45.710Z,72.56
2019-02-25T05:16:54.904Z,72.56
2019-02-25T05:18:04.862Z,72.56
2019-02-25T05:19:14.832Z,72.56
2019-02-25T05:20:24.794Z,72.75
2019-02-25T05:21:34.488Z,72.85
2019-02-25T05:22:44.252Z,72.66
2019-02-25T05:23:53.703Z,72.75
2019-02-25T05:25:03.687Z,72.95
2019-02-25T05:26:13.381Z,72.47
2019-02-25T05:27:23.318Z,72.47
2019-02-25T05:28:33.311Z,72.75
2019-02-25T05:29:43.244Z,72.28
2019-02-25T05:30:53.260Z,72.37
2019-02-25T05:32:03.301Z,72.37
2019-02-25T05:33:13.277Z,71.89
2019-02-25T05:34:22.982Z,72.28
2019-02-25T05:35:32.685Z,72.75
2019-02-25T05:36:42.161Z,72.37
2019-02-25T05:37:51.876Z,72.28
2019-02-25T05:39:01.588Z,72.28
2019-02-25T05:40:11.534Z,71.98
2019-02-25T05:41:21.272Z,71.98
2019-02-25T05:42:30.966Z,72.18
2019-02-25T05:43:40.406Z,72.56
2019-02-25T05:44:50.092Z,72.18
2019-02-25T05:46:00.032Z,71.89
2019-02-25T05:47:09.988Z,71.86
2019-02-25T05:48:19.446Z,72.18
2019-02-25T05:49:28.888Z,71.7
2019-02-25T05:50:38.336Z,71.86
2019-02-25T05:51:48.016Z,71.61
2019-02-25T05:52:57.209Z,71.7
2019-02-25T05:54:07.163Z,71.47
2019-02-25T05:55:16.884Z,71.57
2019-02-25T05:56:26.839Z,71.47
2019-02-25T05:57:36.788Z,71.66
2019-02-25T05:58:46.744Z,71.57
2019-02-25T05:59:55.942Z,71.57
2019-02-25T06:01:05.798Z,72.05
2019-02-25T06:02:15.000Z,71.57
2019-02-25T06:03:24.969Z,71.76
2019-02-25T06:04:34.710Z,71.47
2019-02-25T06:05:44.443Z,71.66
2019-02-25T06:06:53.901Z,71.37
2019-02-25T06:08:03.853Z,71.57
2019-02-25T06:09:13.566Z,71.95
2019-02-25T06:10:23.277Z,71.57
2019-02-25T06:11:33.226Z,71.66
2019-02-25T06:12:42.923Z,70.8
2019-02-25T06:13:52.625Z,70.03
2019-02-25T06:15:02.065Z,70.51
2019-02-25T06:16:11.759Z,71.09
2019-02-25T06:17:21.451Z,71.19
2019-02-25T06:18:31.398Z,71.76
2019-02-25T06:19:41.343Z,64.56
2019-02-25T06:20:51.039Z,60.96
2019-02-25T06:22:00.993Z,74.31
2019-02-25T06:23:10.691Z,83.13
2019-02-25T06:24:20.639Z,85.97
2019-02-25T06:25:30.394Z,83.87
2019-02-25T06:26:41.205Z,80.17
2019-02-25T06:27:50.924Z,77.82
2019-02-25T06:29:00.365Z,76.33
2019-02-25T06:30:10.053Z,74.77
2019-02-25T06:31:20.000Z,73.24
2019-02-25T06:32:29.441Z,72.52
2019-02-25T06:33:39.174Z,71.69
2019-02-25T06:34:50.465Z,71.78
2019-02-25T06:36:00.429Z,71.02
2019-02-25T06:37:10.122Z,71.11
2019-02-25T06:38:20.081Z,70.57
2019-02-25T06:39:30.040Z,70.96
2019-02-25T06:40:40.025Z,70.19
2019-02-25T06:41:49.719Z,70.57
2019-02-25T06:42:59.409Z,70.09
2019-02-25T06:44:09.354Z,69.9
2019-02-25T06:45:19.038Z,70.19
2019-02-25T06:46:28.782Z,69.9
2019-02-25T06:47:38.243Z,69.71
2019-02-25T06:48:47.696Z,70
2019-02-25T06:49:57.632Z,69.71
2019-02-25T06:51:07.561Z,69.62
2019-02-25T06:52:17.510Z,69.9
2019-02-25T06:53:27.761Z,69.9
2019-02-25T06:54:37.704Z,69.81
2019-02-25T06:55:47.428Z,70.09
2019-02-25T06:56:57.388Z,70.13
2019-02-25T06:58:07.339Z,69.36
2019-02-25T06:59:17.048Z,69.36
2019-02-25T07:00:26.505Z,69.46
2019-02-25T07:01:36.442Z,69.26
2019-02-25T07:02:46.126Z,69.26
2019-02-25T07:03:56.076Z,69.04
2019-02-25T07:05:06.027Z,69.26
2019-02-25T07:06:15.707Z,69.26
2019-02-25T07:07:25.153Z,68.88
2019-02-25T07:08:34.595Z,69.07
2019-02-25T07:09:44.279Z,69.56
2019-02-25T07:10:53.961Z,69.56
2019-02-25T07:12:03.400Z,69.13
2019-02-25T07:13:13.091Z,69.46
2019-02-25T07:14:22.799Z,69.46
2019-02-25T07:15:31.983Z,69.26
2019-02-25T07:16:41.694Z,69.36
2019-02-25T07:17:51.680Z,69.46
2019-02-25T07:19:01.634Z,68.79
2019-02-25T07:20:11.618Z,69.65
2019-02-25T07:21:21.339Z,69.36
2019-02-25T07:22:30.789Z,69.07
2019-02-25T07:23:40.475Z,69.07
2019-02-25T07:24:55.450Z,69.17
2019-02-25T07:26:05.149Z,69.26
2019-02-25T07:27:14.846Z,69.26
2019-02-25T07:28:24.785Z,69.46
2019-02-25T07:29:34.467Z,69.26
2019-02-25T07:30:43.911Z,68.88
2019-02-25T07:31:53.859Z,68.88
2019-02-25T07:33:03.557Z,68.79
2019-02-25T07:34:12.749Z,68.69
2019-02-25T07:35:22.700Z,68.59
2019-02-25T07:36:33.512Z,68.79
2019-02-25T07:37:42.967Z,68.79
2019-02-25T07:38:54.612Z,68.79
2019-02-25T07:40:04.323Z,68.88
2019-02-25T07:41:14.024Z,68.88
2019-02-25T07:42:23.714Z,69.07
2019-02-25T07:43:33.397Z,69.07
2019-02-25T07:44:43.082Z,68.98
2019-02-25T07:45:53.041Z,68.88
2019-02-25T07:47:02.737Z,68.88
2019-02-25T07:48:12.675Z,68.88
2019-02-25T07:49:21.867Z,68.88
2019-02-25T07:50:31.547Z,68.59
2019-02-25T07:51:49.723Z,68.3
2019-02-25T07:52:59.418Z,68.79
2019-02-25T07:54:09.400Z,68.21
2019-02-25T07:55:18.605Z,68.5
2019-02-25T07:56:28.304Z,68.5
2019-02-25T07:57:38.048Z,68.3
2019-02-25T07:58:47.478Z,68.59
2019-02-25T07:59:56.916Z,68.21
2019-02-25T08:01:06.867Z,68.4
2019-02-25T08:02:16.554Z,68.3
2019-02-25T08:03:26.491Z,68.3
2019-02-25T08:04:36.191Z,68.5
2019-02-25T08:05:46.144Z,68.4
2019-02-25T08:06:56.090Z,68.5
2019-02-25T08:08:06.041Z,68.5
2019-02-25T08:09:16.051Z,68.59
2019-02-25T08:10:25.988Z,68.59
2019-02-25T08:11:35.677Z,68.59
2019-02-25T08:12:45.360Z,68.4
2019-02-25T08:13:55.053Z,68.5
2019-02-25T08:15:04.990Z,68.21
2019-02-25T08:16:16.437Z,68.4
2019-02-25T08:17:26.133Z,68.12
2019-02-25T08:18:36.068Z,68.12
2019-02-25T08:19:46.004Z,68.3
2019-02-25T08:20:55.434Z,68.4
2019-02-25T08:22:04.873Z,68.02
2019-02-25T08:23:14.816Z,67.92
2019-02-25T08:24:32.706Z,68.21
2019-02-25T08:25:41.921Z,68.59
2019-02-25T08:26:51.608Z,68.59
2019-02-25T08:28:00.558Z,68.4
2019-02-25T08:29:10.248Z,68.5
2019-02-25T08:30:19.933Z,67.92
2019-02-25T08:31:29.621Z,67.92
2019-02-25T08:32:39.313Z,68.02
2019-02-25T08:33:48.766Z,68.02
2019-02-25T08:35:00.756Z,68.12
2019-02-25T08:36:10.747Z,68.79
2019-02-25T08:37:20.448Z,69.07
2019-02-25T08:38:30.132Z,69.74
2019-02-25T08:39:40.069Z,69.74
2019-02-25T08:40:50.059Z,69.56
2019-02-25T08:41:59.744Z,70.03
2019-02-25T08:43:09.437Z,70.03
2019-02-25T08:44:18.874Z,69.93
2019-02-25T08:45:28.825Z,69.97
2019-02-25T08:46:38.269Z,69.11
2019-02-25T08:47:47.733Z,70.17
2019-02-25T08:48:57.174Z,70.07
2019-02-25T08:50:06.618Z,70.07
2019-02-25T08:51:16.313Z,69.97
2019-02-25T08:52:25.772Z,70.17
2019-02-25T08:53:35.231Z,70.17
2019-02-25T08:54:44.679Z,69.3
2019-02-25T08:55:54.368Z,69.3
2019-02-25T08:57:05.699Z,69.3
2019-02-25T08:58:15.654Z,69.24
2019-02-25T08:59:25.090Z,69.34
2019-02-25T09:00:34.540Z,69.34
2019-02-25T09:01:43.989Z,69.05
2019-02-25T09:02:53.448Z,69.14
2019-02-25T09:04:03.408Z,69.34
2019-02-25T09:05:13.396Z,69.34
2019-02-25T09:06:22.830Z,69.43
2019-02-25T09:07:32.268Z,69.14
2019-02-25T09:08:42.216Z,69.62
2019-02-25T09:09:51.659Z,69.43
2019-02-25T09:11:01.601Z,69.34
2019-02-25T09:12:19.305Z,69.91
2019-02-25T09:13:28.750Z,69.43
2019-02-25T09:14:38.690Z,69.91
2019-02-25T09:15:48.381Z,69.72
2019-02-25T09:16:58.342Z,69.34
2019-02-25T09:18:08.035Z,69.37
2019-02-25T09:19:17.482Z,69.66
2019-02-25T09:20:27.425Z,69.53
2019-02-25T09:21:37.141Z,69.56
2019-02-25T09:22:46.605Z,69.56
2019-02-25T09:23:56.303Z,69.27
2019-02-25T09:25:06.012Z,69.37
2019-02-25T09:26:15.956Z,69.56
2019-02-25T09:27:25.638Z,69.37
2019-02-25T09:28:35.580Z,69.08
2019-02-25T09:29:47.409Z,0
2019-02-25T19:39:30.306Z,65.2
2019-02-25T19:40:55.763Z,65.69
2019-02-25T19:42:07.514Z,65.59
2019-02-25T19:43:22.930Z,65.59
2019-02-25T19:44:36.449Z,65.59
2019-02-25T19:45:48.211Z,66.27
2019-02-25T19:46:59.841Z,65.98
2019-02-25T19:48:12.253Z,66.17
2019-02-25T19:49:25.209Z,66.07
2019-02-25T19:50:37.274Z,66.52
2019-02-25T19:52:04.854Z,66.42
2019-02-25T19:53:22.545Z,66.27
2019-02-25T19:54:41.417Z,66.52
2019-02-25T19:55:56.287Z,66.33
2019-02-25T19:57:05.301Z,65.75
2019-02-25T19:58:21.617Z,65.94
2019-02-25T19:59:43.334Z,66.14
2019-02-25T20:01:06.090Z,66.42
2019-02-25T20:02:19.120Z,66.91
2019-02-25T20:03:40.021Z,66.42
2019-02-25T20:04:54.812Z,66.81
2019-02-25T20:06:04.326Z,66.33
2019-02-25T20:07:30.886Z,66.33
2019-02-25T20:08:43.445Z,66.52
2019-02-25T20:10:00.608Z,66.81
2019-02-25T20:11:12.546Z,67.1
2019-02-25T20:12:23.414Z,67.19
2019-02-25T20:13:33.459Z,67.19
2019-02-25T20:14:49.414Z,67.29
2019-02-25T20:16:07.465Z,66.91
2019-02-25T20:17:32.301Z,66.81
2019-02-25T20:18:44.332Z,66.91
2019-02-25T20:19:54.070Z,67
2019-02-25T20:21:10.198Z,67
2019-02-25T20:22:20.855Z,67.19
2019-02-25T20:23:32.860Z,67.39
2019-02-25T20:24:48.242Z,66.3
2019-02-25T20:26:03.022Z,66.58
2019-02-25T20:27:20.667Z,66.49
2019-02-25T20:28:31.344Z,66.33
2019-02-25T20:29:47.906Z,66.3
2019-02-25T20:30:59.129Z,65.91
2019-02-25T20:32:16.277Z,66.58
2019-02-25T20:33:36.788Z,66.1
2019-02-25T20:34:52.329Z,65.53
2019-02-25T20:36:06.534Z,65.53
2019-02-25T20:37:25.063Z,65.72
2019-02-25T20:38:42.130Z,65.63
2019-02-25T20:39:51.806Z,65.91
2019-02-25T20:41:04.969Z,65.53
2019-02-25T20:42:22.215Z,65.72
2019-02-25T20:43:37.266Z,66.3
2019-02-25T20:44:55.198Z,66.49
2019-02-25T20:46:11.698Z,66.1
2019-02-25T20:47:31.005Z,66.01
2019-02-25T20:48:44.421Z,66.2
2019-02-25T20:50:05.618Z,66.58
2019-02-25T20:51:17.175Z,66.3
2019-02-25T20:52:31.430Z,66.2
2019-02-25T20:53:50.749Z,66.2
2019-02-25T20:55:08.853Z,66.2
2019-02-25T20:56:22.387Z,66.3
2019-02-25T20:57:40.197Z,66.49
2019-02-25T20:58:49.729Z,66.39
2019-02-25T21:00:04.092Z,66.58
2019-02-25T21:01:20.924Z,66.68
2019-02-25T21:02:32.667Z,66.88
2019-02-25T21:03:48.026Z,66.78
2019-02-25T21:05:01.900Z,66.78
2019-02-25T21:06:21.112Z,66.58
2019-02-25T21:07:34.393Z,66.78
2019-02-25T21:08:47.401Z,67.22
2019-02-25T21:10:02.987Z,67.26
2019-02-25T21:11:16.332Z,66.94
2019-02-25T21:12:25.822Z,66.97
2019-02-25T21:13:38.430Z,67.07
2019-02-25T21:14:49.594Z,66.84
2019-02-25T21:16:03.005Z,66.88
2019-02-25T21:17:19.134Z,67.42
2019-02-25T21:18:31.050Z,67.42
2019-02-25T21:19:44.217Z,67.45
2019-02-25T21:20:56.193Z,67.32
2019-02-25T21:22:09.590Z,67.22
2019-02-25T21:23:19.086Z,67.42
2019-02-25T21:24:31.425Z,67.42
2019-02-25T21:25:46.767Z,67.32
2019-02-25T21:27:06.297Z,67.42
2019-02-25T21:28:17.736Z,67.42
2019-02-25T21:29:38.756Z,67.42
2019-02-25T21:30:52.820Z,67.32
2019-02-25T21:32:02.647Z,67.32
2019-02-25T21:33:19.846Z,67.32
2019-02-25T21:34:35.585Z,66.94
2019-02-25T21:35:49.990Z,67.51
2019-02-25T21:37:03.031Z,67.32
2019-02-25T21:38:12.802Z,67.32
2019-02-25T21:39:24.794Z,67.32
2019-02-25T21:40:35.013Z,67.61
2019-02-25T21:41:48.337Z,67.51
2019-02-25T21:42:59.189Z,67.51
2019-02-25T21:44:08.916Z,67.32
2019-02-25T21:45:32.488Z,67.22
2019-02-25T21:46:42.268Z,67.32
2019-02-25T21:48:04.768Z,67.61
2019-02-25T21:49:15.497Z,67.13
2019-02-25T21:50:33.934Z,67.51
2019-02-25T21:51:50.251Z,67.22
2019-02-25T21:53:00.015Z,67.32
2019-02-25T21:54:18.724Z,67.32
2019-02-25T21:55:33.037Z,67.71
2019-02-25T21:56:44.202Z,67.51
2019-02-25T21:57:59.545Z,67.71
2019-02-25T21:59:14.954Z,67.99
2019-02-25T22:00:26.988Z,67.99
2019-02-25T22:01:45.692Z,67.42
2019-02-25T22:02:57.699Z,67.8
2019-02-25T22:04:20.215Z,67.32
2019-02-25T22:05:31.651Z,67.51
2019-02-25T22:06:41.621Z,67.77
2019-02-25T22:08:06.263Z,67.71
2019-02-25T22:09:19.109Z,67.38
2019-02-25T22:10:48.893Z,67.86
2019-02-25T22:11:58.761Z,67.38
2019-02-25T22:13:13.495Z,68.06
2019-02-25T22:14:28.020Z,67.61
2019-02-25T22:15:42.539Z,67.48
2019-02-25T22:16:56.534Z,67.9
2019-02-25T22:18:11.382Z,68.06
2019-02-25T22:19:23.293Z,67.71
2019-02-25T22:20:42.186Z,67.8
2019-02-25T22:22:00.849Z,67.77
2019-02-25T22:23:14.723Z,67.86
2019-02-25T22:24:32.110Z,67.96
2019-02-25T22:25:45.677Z,67.96
2019-02-25T22:26:58.022Z,67.86
2019-02-25T22:28:10.102Z,67.86
2019-02-25T22:29:20.082Z,67.86
2019-02-25T22:30:29.549Z,67.68
2019-02-25T22:31:42.435Z,68.15
2019-02-25T22:32:54.084Z,67.86
2019-02-25T22:34:15.293Z,67.86
2019-02-25T22:35:33.012Z,67.86
2019-02-25T22:36:55.865Z,67.86
2019-02-25T22:38:07.496Z,67.86
2019-02-25T22:39:17.485Z,67.96
2019-02-25T22:40:38.794Z,67.86
2019-02-25T22:41:51.063Z,67.96
2019-02-25T22:43:01.335Z,67.96
2019-02-25T22:44:13.134Z,67.86
2019-02-25T22:45:22.878Z,68.06
2019-02-25T22:46:41.236Z,67.68
2019-02-25T22:47:51.061Z,67.58
2019-02-25T22:49:04.922Z,67.86
2019-02-25T22:50:17.780Z,68.06
2019-02-25T22:51:30.760Z,67.96
2019-02-25T22:52:44.344Z,67.96
2019-02-25T22:54:00.955Z,67.96
2019-02-25T22:55:22.592Z,68.35
2019-02-25T22:56:32.166Z,68.44
2019-02-25T22:57:45.930Z,68.35
2019-02-25T22:59:04.925Z,68.15
2019-02-25T23:00:14.734Z,68.15
2019-02-25T23:01:26.606Z,68.15
2019-02-25T23:02:45.191Z,68.35
2019-02-25T23:04:01.891Z,68.15
2019-02-25T23:05:19.576Z,68.06
2019-02-25T23:06:32.811Z,68.25
2019-02-25T23:07:54.666Z,68.15
2019-02-25T23:09:04.756Z,68.15
2019-02-25T23:10:24.767Z,68.15
2019-02-25T23:11:34.506Z,68.25
2019-02-25T23:12:53.052Z,68.25
2019-02-25T23:14:02.810Z,68.06
2019-02-25T23:15:23.123Z,68.15
2019-02-25T23:16:41.871Z,68.25
2019-02-25T23:18:04.562Z,68.15
2019-02-25T23:19:24.766Z,68.25
2019-02-25T23:20:36.141Z,68.06
2019-02-25T23:21:45.907Z,68.25
2019-02-25T23:22:59.907Z,68.25
2019-02-25T23:24:14.305Z,68.44
2019-02-25T23:25:24.440Z,68.44
2019-02-25T23:26:34.440Z,68.63
2019-02-25T23:27:44.435Z,68.83
2019-02-25T23:29:01.834Z,68.63
2019-02-25T23:30:11.569Z,68.54
2019-02-25T23:31:20.799Z,68.63
2019-02-25T23:32:33.284Z,68.44
2019-02-25T23:33:49.394Z,68.25
2019-02-25T23:35:01.113Z,68.25
2019-02-25T23:36:23.614Z,68.21
2019-02-25T23:37:34.264Z,68.63
2019-02-25T23:38:48.097Z,68.51
2019-02-25T23:40:07.210Z,68.54
2019-02-25T23:41:22.011Z,68.25
2019-02-25T23:42:39.614Z,68.12
2019-02-25T23:43:54.263Z,68.51
2019-02-25T23:45:03.742Z,68.51
2019-02-25T23:46:16.331Z,68.6
2019-02-25T23:47:40.112Z,68.73
2019-02-25T23:48:49.588Z,68.51
2019-02-25T23:50:00.999Z,68.41
2019-02-25T23:51:23.336Z,68.7
2019-02-25T23:52:37.690Z,68.7
2019-02-25T23:53:50.688Z,68.7
2019-02-25T23:55:03.488Z,68.51
2019-02-25T23:56:22.775Z,68.7
2019-02-25T23:57:37.791Z,68.6
2019-02-25T23:58:51.778Z,68.7
